This is the latest recevied weather packets stored in our database for station/object K42C. If no packets are shown the sender has not sent any weather packets the latest 10 day(s).
| Time | Temp. | Humidity | Pressure | Rain* | Wind** | Luminosity | Snow |
|---|---|---|---|---|---|---|---|
| 1777729668 | 4.44° C | 85% | 982.2 hPa | 0 mm | 0.89 m/s, 316° | - | - |
| 1777729267 | 5° C | 87% | 982.2 hPa | 0 mm | 0.89 m/s, 263° | - | - |
| 1777728870 | 4.44° C | 90% | 982.3 hPa | 0 mm | 0.89 m/s, 330° | - | - |
| 1777728469 | 4.44° C | 90% | 982.3 hPa | 0 mm | 2.68 m/s, 17° | - | - |
| 1777728072 | 4.44° C | 91% | 982.4 hPa | 0 mm | 2.68 m/s, 315° | - | - |
| 1777727671 | 4.44° C | 93% | 982.4 hPa | 0 mm | 0 m/s | - | - |
| 1777727274 | 3.89° C | 94% | 982.5 hPa | 0 mm | 2.24 m/s, 304° | - | - |
| 1777726873 | 3.89° C | 95% | 982.7 hPa | 0 mm | 0.89 m/s, 281° | - | - |
| 1777726476 | 3.89° C | 97% | 982.7 hPa | 0 mm | 0 m/s | - | - |
| 1777726075 | 3.33° C | 98% | 982.9 hPa | 0 mm | 2.24 m/s, 314° | - | - |
| 1777725678 | 3.33° C | 99% | 983 hPa | 0 mm | 0.89 m/s, 349° | - | - |
| 1777725277 | 2.78° C | 100% | 983.1 hPa | 0 mm | 0.45 m/s, 308° | - | - |
| 1777724880 | 2.78° C | 100% | 983.2 hPa | 0 mm | 0 m/s | - | - |
| 1777724479 | 2.22° C | 100% | 983.4 hPa | 0 mm | 0 m/s | - | - |
| 1777724082 | 1.67° C | 100% | 983.5 hPa | 0 mm | 0 m/s | - | - |
| 1777723681 | 1.11° C | 100% | 983.5 hPa | 0 mm | 0 m/s | - | - |
| 1777723284 | 0.56° C | 100% | 983.6 hPa | 0 mm | 0 m/s | - | - |
| 1777722883 | 0° C | 100% | 983.7 hPa | 0 mm | 0 m/s | - | - |
| 1777722485 | -0.56° C | 100% | 983.7 hPa | 0 mm | 0 m/s | - | - |
| 1777721687 | -1.11° C | 100% | 983.9 hPa | 0 mm | 0 m/s | - | - |
| 1777721287 | -1.67° C | 100% | 983.7 hPa | 0 mm | 0 m/s | - | - |
| 1777720889 | -1.67° C | 100% | 983.7 hPa | 0 mm | 0 m/s | - | - |
| 1777720091 | -2.22° C | 100% | 983.7 hPa | 0 mm | 0 m/s | - | - |
| 1777719690 | -2.22° C | 100% | 983.7 hPa | 0 mm | 0 m/s | - | - |
| 1777719293 | -2.22° C | 100% | 983.7 hPa | 0 mm | 0 m/s | - | - |
* Rain latest hour (hover to see other rain measurements)
** Current wind speed in m/s (hover to see current wind gust speed)